Time;durP1;ratioP1;P1;durP2;ratioP2;P2;SDS_P1;SDS_P2;PMS_P1;PMS_P2;Temp;Humidity;BMP_temperature;BMP_pressure;BME280_temperature;BME280_humidity;BME280_pressure;Samples;Min_cycle;Max_cycle;Signal;HPM_P1;HPM_P2
2023/11/26 00:00:33;;;;;;;7.22;3.75;;;;;;;;;;2091029;28;20036;-56
2023/11/26 00:01:33;;;;;;;6.22;3.47;;;;;;;;;;2091731;28;20053;-56
2023/11/26 00:02:35;;;;;;;4.72;2.80;;;;;;;;;;2091848;28;20045;-56
2023/11/26 00:03:37;;;;;;;5.95;2.65;;;;;;;;;;2091230;28;20036;-56
2023/11/26 00:04:38;;;;;;;6.85;3.55;;;;;;;;;;2091285;28;20468;-56
2023/11/26 00:05:38;;;;;;;4.35;2.40;;;;;;;;;;2091776;28;20512;-56
2023/11/26 00:06:41;;;;;;;4.63;2.55;;;;;;;;;;2091465;28;20043;-56
2023/11/26 00:07:41;;;;;;;5.53;3.20;;;;;;;;;;2091245;28;20405;-56
2023/11/26 00:08:42;;;;;;;5.90;2.50;;;;;;;;;;2091252;28;20049;-56
2023/11/26 00:09:43;;;;;;;6.43;2.35;;;;;;;;;;2091360;28;20037;-55
2023/11/26 00:10:44;;;;;;;7.65;3.13;;;;;;;;;;2091248;28;20056;-56
2023/11/26 00:11:45;;;;;;;5.80;2.90;;;;;;;;;;2091174;28;20182;-56
2023/11/26 00:12:46;;;;;;;4.07;2.10;;;;;;;;;;2091472;28;20033;-56
2023/11/26 00:13:46;;;;;;;4.60;2.28;;;;;;;;;;2091934;28;20037;-56
2023/11/26 00:14:47;;;;;;;4.85;2.40;;;;;;;;;;2091737;28;20396;-56
2023/11/26 00:15:48;;;;;;;4.80;2.10;;;;;;;;;;2091234;28;20040;-56
2023/11/26 00:16:48;;;;;;;4.90;2.20;;;;;;;;;;2091671;28;20045;-55
2023/11/26 00:17:49;;;;;;;4.55;2.30;;;;;;;;;;2091385;28;20047;-56
2023/11/26 00:18:50;;;;;;;3.63;2.00;;;;;;;;;;2091180;28;20488;-55
2023/11/26 00:19:51;;;;;;;6.65;2.00;;;;;;;;;;2091564;28;20028;-56
2023/11/26 00:20:51;;;;;;;4.03;2.20;;;;;;;;;;2091420;28;20056;-56
2023/11/26 00:21:52;;;;;;;5.93;1.98;;;;;;;;;;2091071;28;20036;-55
2023/11/26 00:22:53;;;;;;;4.07;1.98;;;;;;;;;;2091069;28;20037;-58
2023/11/26 00:23:53;;;;;;;3.90;2.35;;;;;;;;;;2091275;28;20040;-58
2023/11/26 00:24:55;;;;;;;4.07;2.10;;;;;;;;;;2090023;28;20404;-58
2023/11/26 00:25:56;;;;;;;2.85;1.80;;;;;;;;;;2091284;28;20036;-58
2023/11/26 00:26:57;;;;;;;3.70;2.45;;;;;;;;;;2091165;28;20052;-55
2023/11/26 00:27:57;;;;;;;3.88;2.25;;;;;;;;;;2091003;28;20041;-58
2023/11/26 00:28:58;;;;;;;5.10;2.72;;;;;;;;;;2091051;28;20385;-56
2023/11/26 00:29:59;;;;;;;4.07;2.50;;;;;;;;;;2090918;28;20041;-55
2023/11/26 00:31:00;;;;;;;4.20;2.67;;;;;;;;;;2091144;28;20057;-56
2023/11/26 00:32:01;;;;;;;4.57;2.92;;;;;;;;;;2090713;28;20041;-56
2023/11/26 00:33:02;;;;;;;4.90;3.33;;;;;;;;;;2090481;28;20037;-56
2023/11/26 00:34:03;;;;;;;6.22;3.00;;;;;;;;;;2091095;28;20045;-55
2023/11/26 00:35:04;;;;;;;6.65;3.53;;;;;;;;;;2091010;28;20037;-56
2023/11/26 00:36:04;;;;;;;5.20;2.90;;;;;;;;;;2089739;28;20029;-56
2023/11/26 00:37:05;;;;;;;5.10;3.20;;;;;;;;;;2090401;28;20036;-56
2023/11/26 00:38:06;;;;;;;7.22;3.28;;;;;;;;;;2091162;28;20036;-56
2023/11/26 00:39:08;;;;;;;9.25;4.22;;;;;;;;;;2090958;28;20021;-56
2023/11/26 00:40:09;;;;;;;6.10;4.07;;;;;;;;;;2090372;28;20041;-57
2023/11/26 00:41:10;;;;;;;6.30;4.05;;;;;;;;;;2089767;28;20516;-56
2023/11/26 00:42:11;;;;;;;6.18;3.22;;;;;;;;;;2090410;28;20033;-57
2023/11/26 00:43:12;;;;;;;7.65;3.92;;;;;;;;;;2082521;28;20041;-57
2023/11/26 00:44:13;;;;;;;7.20;4.32;;;;;;;;;;2089794;28;20227;-57
2023/11/26 00:45:14;;;;;;;6.93;4.05;;;;;;;;;;2090893;28;20063;-57
2023/11/26 00:46:15;;;;;;;7.50;4.43;;;;;;;;;;2089796;28;20125;-57
2023/11/26 00:47:15;;;;;;;7.32;4.45;;;;;;;;;;2082349;28;20042;-56
2023/11/26 00:48:16;;;;;;;10.45;5.10;;;;;;;;;;2090620;28;20033;-57
2023/11/26 00:49:17;;;;;;;7.55;4.72;;;;;;;;;;2091010;28;20032;-57
2023/11/26 00:50:18;;;;;;;7.95;4.65;;;;;;;;;;2089729;28;20485;-57
2023/11/26 00:51:21;;;;;;;7.65;4.85;;;;;;;;;;2090229;28;20040;-57
2023/11/26 00:52:22;;;;;;;7.78;5.10;;;;;;;;;;2090788;28;20048;-57
2023/11/26 00:53:23;;;;;;;8.18;5.20;;;;;;;;;;2090943;28;20203;-58
2023/11/26 00:54:24;;;;;;;7.38;4.82;;;;;;;;;;2091111;28;20056;-58
2023/11/26 00:55:24;;;;;;;9.35;6.07;;;;;;;;;;2091141;28;20052;-59
2023/11/26 00:56:26;;;;;;;9.52;5.53;;;;;;;;;;2090903;28;20048;-59
2023/11/26 00:57:27;;;;;;;8.43;5.78;;;;;;;;;;2090784;28;20045;-60
2023/11/26 00:58:29;;;;;;;10.32;6.45;;;;;;;;;;2090840;28;20052;-61
2023/11/26 00:59:29;;;;;;;10.43;6.07;;;;;;;;;;2090580;28;20534;-60
2023/11/26 01:00:30;;;;;;;12.05;6.28;;;;;;;;;;2090010;28;20037;-59
2023/11/26 01:01:31;;;;;;;12.00;5.88;;;;;;;;;;2090146;28;20037;-59
2023/11/26 01:02:34;;;;;;;8.73;6.15;;;;;;;;;;2090234;28;20047;-59
2023/11/26 01:03:34;;;;;;;9.98;6.10;;;;;;;;;;2091103;28;20033;-59
2023/11/26 01:04:35;;;;;;;8.48;6.03;;;;;;;;;;2090784;28;20053;-59
2023/11/26 01:05:36;;;;;;;11.57;6.53;;;;;;;;;;2090428;28;20036;-59
2023/11/26 01:06:38;;;;;;;9.55;6.18;;;;;;;;;;2082313;28;20421;-60
2023/11/26 01:07:38;;;;;;;11.23;6.70;;;;;;;;;;2090204;28;20152;-59
2023/11/26 01:08:39;;;;;;;9.38;5.90;;;;;;;;;;2090512;28;20049;-59
2023/11/26 01:09:40;;;;;;;12.82;6.80;;;;;;;;;;2090727;28;20033;-59
2023/11/26 01:10:41;;;;;;;10.80;6.45;;;;;;;;;;2089842;28;20107;-60
2023/11/26 01:11:41;;;;;;;13.82;6.70;;;;;;;;;;2089547;28;20572;-59
2023/11/26 01:12:42;;;;;;;10.77;6.25;;;;;;;;;;2090835;28;20389;-59
2023/11/26 01:13:43;;;;;;;12.52;6.45;;;;;;;;;;2090765;28;20071;-59
2023/11/26 01:14:44;;;;;;;11.35;6.63;;;;;;;;;;2090764;28;20123;-59
2023/11/26 01:15:44;;;;;;;10.90;6.22;;;;;;;;;;2089886;28;20045;-59
2023/11/26 01:16:45;;;;;;;12.15;7.15;;;;;;;;;;2090090;28;20033;-59
2023/11/26 01:17:47;;;;;;;12.07;6.40;;;;;;;;;;2089945;28;20524;-59
2023/11/26 01:18:48;;;;;;;10.77;5.63;;;;;;;;;;2090096;28;20112;-59
2023/11/26 01:19:48;;;;;;;10.70;6.47;;;;;;;;;;2082126;28;20033;-59
2023/11/26 01:20:49;;;;;;;13.20;6.07;;;;;;;;;;2090252;28;20036;-59
2023/11/26 01:21:50;;;;;;;12.07;6.47;;;;;;;;;;2090595;28;20051;-59
2023/11/26 01:22:51;;;;;;;11.93;7.68;;;;;;;;;;2090322;28;20389;-59
2023/11/26 01:23:53;;;;;;;13.70;6.78;;;;;;;;;;2082175;28;20042;-60
2023/11/26 01:24:54;;;;;;;9.25;6.30;;;;;;;;;;2088398;28;20041;-60
2023/11/26 01:25:55;;;;;;;12.77;6.45;;;;;;;;;;2090276;28;20033;-59
2023/11/26 01:26:56;;;;;;;11.95;6.50;;;;;;;;;;2090721;28;20028;-59
2023/11/26 01:27:57;;;;;;;11.32;6.85;;;;;;;;;;2090718;28;20044;-59
2023/11/26 01:28:58;;;;;;;13.20;7.10;;;;;;;;;;2090727;28;20040;-59
2023/11/26 01:29:58;;;;;;;14.32;7.20;;;;;;;;;;2089623;28;20037;-58
2023/11/26 01:30:59;;;;;;;12.85;7.05;;;;;;;;;;2092760;28;20469;-58
2023/11/26 01:32:01;;;;;;;14.02;6.80;;;;;;;;;;2090347;28;20060;-59
2023/11/26 01:33:01;;;;;;;10.30;5.63;;;;;;;;;;2090527;28;20059;-59
2023/11/26 01:34:03;;;;;;;12.38;6.72;;;;;;;;;;2090135;28;20385;-59
2023/11/26 01:35:04;;;;;;;9.05;6.30;;;;;;;;;;2090125;28;20033;-59
2023/11/26 01:36:09;;;;;;;11.45;6.53;;;;;;;;;;2090593;28;20025;-59
2023/11/26 01:37:10;;;;;;;10.90;6.15;;;;;;;;;;2090191;28;20412;-59
2023/11/26 01:38:11;;;;;;;13.07;6.13;;;;;;;;;;2081754;28;20038;-60
2023/11/26 01:39:12;;;;;;;10.85;6.30;;;;;;;;;;2090012;28;20376;-59
2023/11/26 01:40:13;;;;;;;9.02;6.20;;;;;;;;;;2090202;28;20041;-59
2023/11/26 01:41:14;;;;;;;15.23;6.13;;;;;;;;;;2089989;28;20432;-59
2023/11/26 01:42:15;;;;;;;8.95;4.72;;;;;;;;;;2090540;28;20048;-59
2023/11/26 01:43:20;;;;;;;12.55;5.97;;;;;;;;;;2090529;28;20047;-59
2023/11/26 01:44:21;;;;;;;14.85;7.00;;;;;;;;;;2090842;28;20523;-59
2023/11/26 01:45:22;;;;;;;11.57;6.20;;;;;;;;;;2090834;28;20036;-59
2023/11/26 01:46:23;;;;;;;5.15;2.97;;;;;;;;;;2090453;28;20052;-59
2023/11/26 01:47:24;;;;;;;10.32;4.97;;;;;;;;;;2090437;28;20043;-59
2023/11/26 01:48:25;;;;;;;9.85;5.25;;;;;;;;;;2090299;28;20090;-60
2023/11/26 01:49:26;;;;;;;11.57;5.55;;;;;;;;;;2089349;28;20037;-59
2023/11/26 01:50:26;;;;;;;7.20;4.20;;;;;;;;;;2090032;28;20053;-59
2023/11/26 01:51:27;;;;;;;9.30;4.40;;;;;;;;;;2090611;28;20033;-59
2023/11/26 01:52:29;;;;;;;8.52;3.60;;;;;;;;;;2090476;28;20033;-59
2023/11/26 01:53:30;;;;;;;6.57;3.67;;;;;;;;;;2090405;28;20032;-59
2023/11/26 01:54:31;;;;;;;7.97;4.18;;;;;;;;;;2090391;28;20389;-59
2023/11/26 01:55:32;;;;;;;8.23;4.85;;;;;;;;;;2090140;28;20029;-58
2023/11/26 01:56:33;;;;;;;8.98;5.95;;;;;;;;;;2090091;28;20029;-58
2023/11/26 01:57:34;;;;;;;8.35;4.88;;;;;;;;;;2090282;28;20029;-58
2023/11/26 01:58:34;;;;;;;9.35;5.03;;;;;;;;;;2089657;28;20064;-58
2023/11/26 01:59:35;;;;;;;12.40;5.40;;;;;;;;;;2089686;28;20044;-59
2023/11/26 02:00:36;;;;;;;8.52;5.45;;;;;;;;;;2089487;28;20400;-58
2023/11/26 02:01:37;;;;;;;10.40;5.90;;;;;;;;;;2081825;28;20049;-58
2023/11/26 02:02:37;;;;;;;7.05;4.15;;;;;;;;;;2098063;28;20036;-58
2023/11/26 02:03:38;;;;;;;8.93;5.20;;;;;;;;;;2098314;28;20047;-58
2023/11/26 02:04:39;;;;;;;8.55;4.13;;;;;;;;;;2089426;28;20056;-59
2023/11/26 02:05:39;;;;;;;7.90;4.43;;;;;;;;;;2090364;28;20052;-59
2023/11/26 02:06:40;;;;;;;7.40;4.93;;;;;;;;;;2089756;28;20442;-59
2023/11/26 02:07:41;;;;;;;8.68;4.90;;;;;;;;;;2081775;28;20157;-59
2023/11/26 02:08:42;;;;;;;7.03;3.58;;;;;;;;;;2073387;28;20072;-58
2023/11/26 02:09:43;;;;;;;8.70;4.38;;;;;;;;;;2073609;28;20478;-59
2023/11/26 02:10:43;;;;;;;6.40;3.65;;;;;;;;;;2089800;28;20045;-60
2023/11/26 02:11:45;;;;;;;6.63;4.10;;;;;;;;;;2088761;28;20079;-60
2023/11/26 02:13:04;;;;;;;7.50;3.97;;;;;;;;;;2081771;28;20038;-59
2023/11/26 02:14:04;;;;;;;8.40;4.05;;;;;;;;;;2089589;28;20040;-59
2023/11/26 02:15:06;;;;;;;4.10;2.80;;;;;;;;;;2089681;28;20037;-60
2023/11/26 02:16:07;;;;;;;7.93;4.15;;;;;;;;;;2089633;28;20531;-60
2023/11/26 02:17:08;;;;;;;6.18;2.47;;;;;;;;;;2089833;28;20037;-59
2023/11/26 02:18:09;;;;;;;7.03;3.33;;;;;;;;;;2081153;28;20049;-59
2023/11/26 02:19:32;;;;;;;10.88;3.88;;;;;;;;;;2080830;28;20072;-59
2023/11/26 02:20:33;;;;;;;5.47;2.83;;;;;;;;;;2081661;28;20045;-59
2023/11/26 02:21:34;;;;;;;5.53;3.05;;;;;;;;;;2081548;28;20513;-59
2023/11/26 02:22:34;;;;;;;5.10;2.90;;;;;;;;;;2089683;28;20037;-59
2023/11/26 02:23:38;;;;;;;6.57;2.72;;;;;;;;;;2089980;28;20041;-59
2023/11/26 02:24:41;;;;;;;2.95;1.38;;;;;;;;;;2089662;28;20424;-59
2023/11/26 02:25:41;;;;;;;5.32;2.22;;;;;;;;;;2088258;28;20041;-58
2023/11/26 02:26:42;;;;;;;4.45;2.25;;;;;;;;;;2089633;28;20048;-59
2023/11/26 02:27:43;;;;;;;4.60;1.92;;;;;;;;;;2090275;28;20053;-59
2023/11/26 02:28:43;;;;;;;6.18;2.20;;;;;;;;;;2090462;28;20036;-58
2023/11/26 02:29:44;;;;;;;3.65;2.22;;;;;;;;;;2090393;28;20033;-58
2023/11/26 02:30:45;;;;;;;3.75;2.10;;;;;;;;;;2089974;28;20053;-58
2023/11/26 02:31:46;;;;;;;6.18;2.10;;;;;;;;;;2090152;28;20440;-57
2023/11/26 02:32:47;;;;;;;5.75;2.25;;;;;;;;;;2089564;28;20087;-58
2023/11/26 02:33:48;;;;;;;6.13;2.33;;;;;;;;;;2089670;28;20046;-55
2023/11/26 02:34:48;;;;;;;4.97;2.30;;;;;;;;;;2089874;28;20029;-56
2023/11/26 02:35:49;;;;;;;5.28;2.28;;;;;;;;;;2089627;28;20415;-56
2023/11/26 02:36:50;;;;;;;6.38;1.77;;;;;;;;;;2091227;28;20108;-55
2023/11/26 02:37:51;;;;;;;5.50;2.30;;;;;;;;;;2090155;28;20035;-55
2023/11/26 02:38:52;;;;;;;4.35;2.15;;;;;;;;;;2090390;28;20025;-55
2023/11/26 02:39:53;;;;;;;4.47;2.42;;;;;;;;;;2090381;28;20033;-56
2023/11/26 02:40:53;;;;;;;5.22;2.28;;;;;;;;;;2090133;28;20025;-55
2023/11/26 02:41:55;;;;;;;6.15;2.70;;;;;;;;;;2090135;28;20384;-55
2023/11/26 02:42:59;;;;;;;5.03;2.03;;;;;;;;;;2090147;28;20052;-55
2023/11/26 02:44:00;;;;;;;4.47;2.40;;;;;;;;;;2090066;28;20029;-55
2023/11/26 02:45:01;;;;;;;6.53;2.60;;;;;;;;;;2090138;28;20045;-55
2023/11/26 02:46:02;;;;;;;3.97;1.73;;;;;;;;;;2090276;28;20151;-56
2023/11/26 02:47:03;;;;;;;6.55;2.63;;;;;;;;;;2089754;28;20061;-56
2023/11/26 02:48:04;;;;;;;5.85;2.22;;;;;;;;;;2089565;28;20421;-55
2023/11/26 02:49:05;;;;;;;3.92;1.23;;;;;;;;;;2090002;28;20049;-56
2023/11/26 02:50:07;;;;;;;5.72;1.90;;;;;;;;;;2090374;28;20120;-56
2023/11/26 02:51:08;;;;;;;6.32;1.88;;;;;;;;;;2090187;28;20036;-56
2023/11/26 02:52:09;;;;;;;7.35;2.58;;;;;;;;;;2089141;28;20053;-56
2023/11/26 02:53:10;;;;;;;7.75;2.63;;;;;;;;;;2089548;28;20416;-55
2023/11/26 02:54:10;;;;;;;5.95;1.98;;;;;;;;;;2090470;28;20107;-55
2023/11/26 02:55:11;;;;;;;4.35;2.25;;;;;;;;;;2090424;28;20025;-56
2023/11/26 02:56:12;;;;;;;6.20;2.35;;;;;;;;;;2089980;28;20037;-56
2023/11/26 02:57:14;;;;;;;7.60;2.08;;;;;;;;;;2089475;28;20029;-56
2023/11/26 02:58:16;;;;;;;6.43;2.22;;;;;;;;;;2089612;28;20044;-56
2023/11/26 02:59:17;;;;;;;5.32;2.20;;;;;;;;;;2089470;28;20041;-56
2023/11/26 03:00:20;;;;;;;2.88;1.42;;;;;;;;;;2082551;28;20037;-56
2023/11/26 03:01:25;;;;;;;4.80;1.83;;;;;;;;;;2083049;28;20521;-55
2023/11/26 03:02:30;;;;;;;3.30;1.60;;;;;;;;;;2091099;28;20433;-56
2023/11/26 03:03:32;;;;;;;6.60;1.98;;;;;;;;;;2091956;28;20052;-56
2023/11/26 03:04:33;;;;;;;4.28;2.00;;;;;;;;;;2091868;28;20045;-55
2023/11/26 03:05:34;;;;;;;4.38;2.03;;;;;;;;;;2091598;28;20044;-56
2023/11/26 03:06:35;;;;;;;4.82;1.90;;;;;;;;;;2091154;28;20505;-55
2023/11/26 03:07:36;;;;;;;3.10;1.88;;;;;;;;;;2091983;28;20485;-56
2023/11/26 03:08:38;;;;;;;5.35;1.40;;;;;;;;;;2091681;28;20064;-56
2023/11/26 03:12:56;;;;;;;4.55;1.67;;;;;;;;;;2091692;28;20049;-55
2023/11/26 03:13:38;;;;;;;3.63;1.70;;;;;;;;;;2092275;28;20135;-57
2023/11/26 03:14:39;;;;;;;3.83;1.52;;;;;;;;;;2090745;28;20129;-58
2023/11/26 03:15:40;;;;;;;4.32;2.05;;;;;;;;;;2091005;28;20028;-58
2023/11/26 03:16:44;;;;;;;2.58;1.20;;;;;;;;;;2091619;28;20464;-58
2023/11/26 03:17:45;;;;;;;4.93;1.83;;;;;;;;;;2091836;28;20033;-58
2023/11/26 03:18:49;;;;;;;5.55;2.25;;;;;;;;;;2091675;28;20044;-58
2023/11/26 03:19:49;;;;;;;3.80;1.50;;;;;;;;;;2091687;28;20036;-55
2023/11/26 03:20:52;;;;;;;5.25;1.65;;;;;;;;;;2091784;28;20155;-58
2023/11/26 03:21:54;;;;;;;8.30;1.75;;;;;;;;;;2090916;28;20036;-58
2023/11/26 03:22:55;;;;;;;2.95;1.30;;;;;;;;;;2091002;28;20032;-58
2023/11/26 03:23:56;;;;;;;5.45;2.22;;;;;;;;;;2091318;28;20080;-58
2023/11/26 03:24:57;;;;;;;5.20;1.80;;;;;;;;;;2090117;28;20067;-58
2023/11/26 03:25:58;;;;;;;6.22;2.15;;;;;;;;;;2091514;28;20051;-58
2023/11/26 03:26:59;;;;;;;9.93;1.90;;;;;;;;;;2091521;28;20036;-57
2023/11/26 03:28:00;;;;;;;7.00;2.20;;;;;;;;;;2091654;28;20049;-58
2023/11/26 03:29:01;;;;;;;9.52;2.38;;;;;;;;;;2091839;28;20045;-59
2023/11/26 03:30:02;;;;;;;4.25;1.92;;;;;;;;;;2091603;28;20039;-58
2023/11/26 03:31:02;;;;;;;6.22;1.67;;;;;;;;;;2091329;28;20409;-58
2023/11/26 03:32:03;;;;;;;5.63;2.10;;;;;;;;;;2082878;28;20040;-57
2023/11/26 03:33:04;;;;;;;3.72;1.75;;;;;;;;;;2083040;28;20387;-55
2023/11/26 03:34:09;;;;;;;3.90;1.70;;;;;;;;;;2091444;28;20505;-57
2023/11/26 03:35:12;;;;;;;8.52;2.22;;;;;;;;;;2091650;28;20091;-57
2023/11/26 03:36:12;;;;;;;5.70;2.63;;;;;;;;;;2090880;28;20037;-57
2023/11/26 03:37:13;;;;;;;5.18;2.35;;;;;;;;;;2091048;28;20032;-57
2023/11/26 03:38:14;;;;;;;4.93;1.95;;;;;;;;;;2082621;28;20524;-57
2023/11/26 03:39:18;;;;;;;4.78;2.00;;;;;;;;;;2090623;28;20124;-57
2023/11/26 03:40:19;;;;;;;7.95;2.78;;;;;;;;;;2091481;28;20029;-57
2023/11/26 03:41:19;;;;;;;4.15;2.10;;;;;;;;;;2091467;28;20405;-57
2023/11/26 03:42:20;;;;;;;5.25;2.13;;;;;;;;;;2091369;28;20037;-56
2023/11/26 03:43:21;;;;;;;6.80;2.00;;;;;;;;;;2091434;28;20048;-57
2023/11/26 03:44:21;;;;;;;5.70;2.53;;;;;;;;;;2091505;28;20027;-57
2023/11/26 03:45:23;;;;;;;4.68;2.47;;;;;;;;;;2090231;28;20045;-57
2023/11/26 03:46:24;;;;;;;4.88;2.42;;;;;;;;;;2090846;28;20488;-57
2023/11/26 03:47:24;;;;;;;9.05;3.13;;;;;;;;;;2090525;28;20044;-57
2023/11/26 03:48:25;;;;;;;6.20;2.67;;;;;;;;;;2090854;28;20075;-57
2023/11/26 03:49:26;;;;;;;4.93;2.05;;;;;;;;;;2091094;28;20047;-57
2023/11/26 03:50:28;;;;;;;7.68;3.22;;;;;;;;;;2091109;28;20091;-57
2023/11/26 03:51:29;;;;;;;7.28;2.80;;;;;;;;;;2099188;28;20044;-56
2023/11/26 03:52:29;;;;;;;5.97;2.53;;;;;;;;;;2107053;28;20043;-57
2023/11/26 03:53:30;;;;;;;6.80;3.13;;;;;;;;;;2090985;28;20401;-57
2023/11/26 03:54:31;;;;;;;5.47;3.22;;;;;;;;;;2090497;28;20037;-56
2023/11/26 03:55:32;;;;;;;5.60;2.72;;;;;;;;;;2090835;28;20033;-57
2023/11/26 03:56:32;;;;;;;7.70;2.65;;;;;;;;;;2090417;28;20052;-56
2023/11/26 03:57:33;;;;;;;5.93;3.22;;;;;;;;;;2091139;28;20045;-57
2023/11/26 03:58:34;;;;;;;4.53;2.35;;;;;;;;;;2091303;28;20392;-57
2023/11/26 03:59:35;;;;;;;6.35;2.95;;;;;;;;;;2090722;28;20041;-57
2023/11/26 04:00:37;;;;;;;8.90;3.42;;;;;;;;;;2091011;28;20037;-57
2023/11/26 04:01:38;;;;;;;5.68;2.95;;;;;;;;;;2091625;28;20082;-57
2023/11/26 04:02:41;;;;;;;5.78;3.30;;;;;;;;;;2091027;28;20049;-57
2023/11/26 04:03:41;;;;;;;4.72;2.97;;;;;;;;;;2091299;28;20037;-57
2023/11/26 04:04:42;;;;;;;6.03;2.42;;;;;;;;;;2091248;28;20044;-57
2023/11/26 04:05:43;;;;;;;7.95;3.38;;;;;;;;;;2091334;28;20404;-57
2023/11/26 04:06:43;;;;;;;6.40;3.03;;;;;;;;;;2091263;28;20039;-58
2023/11/26 04:07:44;;;;;;;6.50;3.03;;;;;;;;;;2091471;28;20045;-56
2023/11/26 04:08:45;;;;;;;7.47;3.20;;;;;;;;;;2091548;28;20037;-57
2023/11/26 04:09:47;;;;;;;4.78;1.88;;;;;;;;;;2091142;28;20037;-57
2023/11/26 04:10:47;;;;;;;8.23;3.85;;;;;;;;;;2089809;28;20045;-56
2023/11/26 04:11:48;;;;;;;7.03;3.08;;;;;;;;;;2082283;28;20036;-56
2023/11/26 04:12:49;;;;;;;8.98;3.80;;;;;;;;;;2090590;28;20021;-56
2023/11/26 04:13:49;;;;;;;9.15;3.35;;;;;;;;;;2091173;28;20036;-56
2023/11/26 04:14:54;;;;;;;8.13;3.40;;;;;;;;;;2090863;28;20055;-57
2023/11/26 04:15:57;;;;;;;7.93;2.70;;;;;;;;;;2091341;28;20458;-57
2023/11/26 04:16:58;;;;;;;6.88;3.58;;;;;;;;;;2090883;28;20037;-57
2023/11/26 04:17:59;;;;;;;7.25;3.15;;;;;;;;;;2090543;28;20032;-57
2023/11/26 04:19:00;;;;;;;7.03;3.65;;;;;;;;;;2091592;28;20041;-58
2023/11/26 04:20:00;;;;;;;8.20;3.92;;;;;;;;;;2091347;28;20044;-57
2023/11/26 04:21:01;;;;;;;8.95;3.60;;;;;;;;;;2091135;28;20393;-57
2023/11/26 04:22:02;;;;;;;10.07;4.28;;;;;;;;;;2091097;28;20045;-57
2023/11/26 04:23:03;;;;;;;6.95;3.45;;;;;;;;;;2091543;28;20462;-57
2023/11/26 04:24:04;;;;;;;9.82;3.80;;;;;;;;;;2091088;28;20037;-57
2023/11/26 04:25:05;;;;;;;10.00;3.05;;;;;;;;;;2091061;28;20033;-57
2023/11/26 04:26:06;;;;;;;9.68;3.85;;;;;;;;;;2091730;28;20036;-57
2023/11/26 04:27:07;;;;;;;10.25;3.95;;;;;;;;;;2090967;28;20436;-56
2023/11/26 04:28:08;;;;;;;10.57;3.75;;;;;;;;;;2091059;28;20041;-57
2023/11/26 04:29:08;;;;;;;9.93;4.15;;;;;;;;;;2090540;28;20064;-56
2023/11/26 04:30:09;;;;;;;8.38;3.60;;;;;;;;;;2090336;28;20041;-57
2023/11/26 04:31:10;;;;;;;7.45;3.97;;;;;;;;;;2090730;28;20040;-57
2023/11/26 04:32:11;;;;;;;12.38;4.43;;;;;;;;;;2091151;28;20048;-57
2023/11/26 04:33:12;;;;;;;10.70;4.38;;;;;;;;;;2091129;28;20378;-57
2023/11/26 04:34:12;;;;;;;6.88;2.60;;;;;;;;;;2090971;28;20029;-57
2023/11/26 04:35:13;;;;;;;7.93;3.83;;;;;;;;;;2091097;28;20040;-57
2023/11/26 04:36:14;;;;;;;15.55;4.13;;;;;;;;;;2090772;28;20040;-57
2023/11/26 04:37:15;;;;;;;6.78;3.78;;;;;;;;;;2091304;28;20036;-57
2023/11/26 04:38:15;;;;;;;7.30;3.42;;;;;;;;;;2090945;28;20025;-57
2023/11/26 04:39:16;;;;;;;6.30;3.55;;;;;;;;;;2091063;28;20032;-57
2023/11/26 04:40:17;;;;;;;10.55;4.55;;;;;;;;;;2090943;28;20055;-57
2023/11/26 04:41:18;;;;;;;10.65;3.65;;;;;;;;;;2091099;28;20033;-57
2023/11/26 04:42:19;;;;;;;9.23;4.25;;;;;;;;;;2091095;28;20032;-57
2023/11/26 04:43:19;;;;;;;10.27;4.32;;;;;;;;;;2090954;28;20056;-57
2023/11/26 04:44:21;;;;;;;10.20;4.95;;;;;;;;;;2090394;28;20048;-57
2023/11/26 04:45:22;;;;;;;8.98;4.63;;;;;;;;;;2090951;28;20052;-56
2023/11/26 04:46:23;;;;;;;8.30;3.47;;;;;;;;;;2091131;28;20028;-57
2023/11/26 04:47:23;;;;;;;15.00;4.45;;;;;;;;;;2091209;28;20029;-56
2023/11/26 04:48:24;;;;;;;11.00;5.30;;;;;;;;;;2090927;28;20526;-56
2023/11/26 04:49:25;;;;;;;9.98;4.53;;;;;;;;;;2090914;28;20032;-56
2023/11/26 04:50:26;;;;;;;10.05;4.47;;;;;;;;;;2090917;28;20116;-57
2023/11/26 04:51:27;;;;;;;10.55;4.57;;;;;;;;;;2090870;28;20044;-57
2023/11/26 04:52:27;;;;;;;10.55;4.85;;;;;;;;;;2090843;28;20048;-57
2023/11/26 04:53:28;;;;;;;10.45;4.47;;;;;;;;;;2090997;28;20033;-57
2023/11/26 04:54:29;;;;;;;10.65;5.10;;;;;;;;;;2091258;28;20064;-56
2023/11/26 04:55:30;;;;;;;9.98;4.40;;;;;;;;;;2091541;28;20480;-57
2023/11/26 04:56:30;;;;;;;11.45;4.95;;;;;;;;;;2091265;28;20037;-56
2023/11/26 04:57:31;;;;;;;12.05;4.75;;;;;;;;;;2090449;28;20045;-56
2023/11/26 04:58:32;;;;;;;12.95;4.88;;;;;;;;;;2090459;28;20032;-56
2023/11/26 04:59:34;;;;;;;8.07;4.18;;;;;;;;;;2090845;28;20032;-56
2023/11/26 05:00:35;;;;;;;9.45;5.05;;;;;;;;;;2090654;28;20033;-56
2023/11/26 05:01:38;;;;;;;12.65;5.45;;;;;;;;;;2090867;28;20056;-56
2023/11/26 05:02:42;;;;;;;11.90;5.18;;;;;;;;;;2091455;28;20041;-56
2023/11/26 05:03:42;;;;;;;11.98;4.93;;;;;;;;;;2090490;28;20060;-57
2023/11/26 05:04:44;;;;;;;12.30;6.00;;;;;;;;;;2091179;28;20408;-56
2023/11/26 05:05:44;;;;;;;7.70;3.53;;;;;;;;;;2090795;28;20052;-56
2023/11/26 05:06:45;;;;;;;11.82;4.07;;;;;;;;;;2090813;28;20416;-56
2023/11/26 05:07:46;;;;;;;13.63;4.60;;;;;;;;;;2091098;28;20112;-56
2023/11/26 05:08:46;;;;;;;9.82;4.95;;;;;;;;;;2090780;28;20045;-56
2023/11/26 05:09:47;;;;;;;7.35;3.58;;;;;;;;;;2090563;28;20052;-56
2023/11/26 05:10:48;;;;;;;7.82;3.88;;;;;;;;;;2090468;28;20041;-55
2023/11/26 05:11:50;;;;;;;6.57;3.65;;;;;;;;;;2090373;28;20404;-56
2023/11/26 05:12:50;;;;;;;11.20;5.15;;;;;;;;;;2090622;28;20036;-56
2023/11/26 05:13:51;;;;;;;10.15;4.75;;;;;;;;;;2090801;28;20488;-56
2023/11/26 05:14:52;;;;;;;11.90;3.80;;;;;;;;;;2090731;28;20041;-56
2023/11/26 05:15:53;;;;;;;10.25;4.10;;;;;;;;;;2090681;28;20024;-56
2023/11/26 05:16:54;;;;;;;13.95;5.18;;;;;;;;;;2091210;28;20021;-56
2023/11/26 05:17:55;;;;;;;11.07;5.13;;;;;;;;;;2090573;28;20025;-56
2023/11/26 05:18:55;;;;;;;11.18;3.78;;;;;;;;;;2090834;28;20040;-56
2023/11/26 05:19:56;;;;;;;8.55;3.75;;;;;;;;;;2091434;28;20037;-56
2023/11/26 05:20:57;;;;;;;10.57;4.50;;;;;;;;;;2090649;28;20044;-56
2023/11/26 05:21:57;;;;;;;8.45;4.00;;;;;;;;;;2090368;28;20473;-57
2023/11/26 05:22:58;;;;;;;11.23;4.50;;;;;;;;;;2090665;28;20040;-56
2023/11/26 05:23:59;;;;;;;10.07;4.35;;;;;;;;;;2090800;28;20036;-56
2023/11/26 05:25:00;;;;;;;8.98;3.80;;;;;;;;;;2089563;28;20033;-56
2023/11/26 05:26:02;;;;;;;7.95;3.42;;;;;;;;;;2090584;28;20549;-56
2023/11/26 05:27:03;;;;;;;9.52;4.93;;;;;;;;;;2090680;28;20048;-56
2023/11/26 05:28:04;;;;;;;6.90;4.00;;;;;;;;;;2090791;28;20033;-56
2023/11/26 05:29:05;;;;;;;8.48;4.18;;;;;;;;;;2090586;28;20076;-56
2023/11/26 05:30:06;;;;;;;11.18;3.38;;;;;;;;;;2090535;28;20557;-56
2023/11/26 05:31:08;;;;;;;7.35;2.85;;;;;;;;;;2090583;28;20405;-56
2023/11/26 05:32:09;;;;;;;7.97;3.40;;;;;;;;;;2089652;28;20614;-56
2023/11/26 05:33:10;;;;;;;8.20;3.60;;;;;;;;;;2090233;28;20040;-56
2023/11/26 05:34:11;;;;;;;11.45;4.57;;;;;;;;;;2090246;28;20117;-56
2023/11/26 05:35:14;;;;;;;6.68;2.90;;;;;;;;;;2090693;28;20040;-56
2023/11/26 05:36:15;;;;;;;9.80;4.00;;;;;;;;;;2090570;28;20044;-56
2023/11/26 05:37:16;;;;;;;7.38;3.15;;;;;;;;;;2090530;28;20025;-56
2023/11/26 05:38:16;;;;;;;9.55;4.10;;;;;;;;;;2090523;28;20393;-54
2023/11/26 05:39:17;;;;;;;7.93;3.38;;;;;;;;;;2090576;28;20021;-56
2023/11/26 05:40:18;;;;;;;14.23;5.03;;;;;;;;;;2090661;28;20028;-54
2023/11/26 05:41:18;;;;;;;5.57;3.00;;;;;;;;;;2090229;28;20044;-54
2023/11/26 05:42:19;;;;;;;8.23;3.83;;;;;;;;;;2090172;28;20075;-54
2023/11/26 05:43:20;;;;;;;9.73;4.63;;;;;;;;;;2090488;28;20037;-54
2023/11/26 05:44:21;;;;;;;8.25;4.45;;;;;;;;;;2091153;28;20044;-55
2023/11/26 05:45:21;;;;;;;9.85;4.45;;;;;;;;;;2091058;28;20472;-54
2023/11/26 05:46:23;;;;;;;8.80;4.80;;;;;;;;;;2090750;28;20086;-54
2023/11/26 05:47:25;;;;;;;7.70;4.85;;;;;;;;;;2090436;28;20052;-54
2023/11/26 05:48:25;;;;;;;14.10;6.03;;;;;;;;;;2090393;28;20365;-54
2023/11/26 05:49:26;;;;;;;7.20;3.97;;;;;;;;;;2090482;28;20105;-54
2023/11/26 05:50:27;;;;;;;12.05;5.57;;;;;;;;;;2090458;28;20049;-54
2023/11/26 05:51:27;;;;;;;14.48;4.85;;;;;;;;;;2090440;28;20049;-54
2023/11/26 05:52:28;;;;;;;10.38;4.97;;;;;;;;;;2090416;28;20404;-54
2023/11/26 05:53:29;;;;;;;7.53;3.10;;;;;;;;;;2090564;28;20120;-54
2023/11/26 05:54:30;;;;;;;12.05;4.63;;;;;;;;;;2090908;28;20476;-54
2023/11/26 05:55:30;;;;;;;8.13;3.72;;;;;;;;;;2090398;28;20036;-54
2023/11/26 05:56:31;;;;;;;11.82;4.22;;;;;;;;;;2090397;28;20392;-55
2023/11/26 05:57:32;;;;;;;9.43;4.45;;;;;;;;;;2090090;28;20049;-55
2023/11/26 05:58:33;;;;;;;8.32;4.22;;;;;;;;;;2090091;28;20067;-55
2023/11/26 05:59:36;;;;;;;6.90;3.55;;;;;;;;;;2090534;28;20052;-54
2023/11/26 06:00:36;;;;;;;11.52;5.05;;;;;;;;;;2090191;28;20086;-54
2023/11/26 06:01:37;;;;;;;10.65;5.28;;;;;;;;;;2090685;28;20508;-54
2023/11/26 06:02:38;;;;;;;8.65;3.88;;;;;;;;;;2090403;28;20044;-54
2023/11/26 06:03:38;;;;;;;6.55;3.63;;;;;;;;;;2090382;28;20120;-54
2023/11/26 06:04:39;;;;;;;10.20;4.13;;;;;;;;;;2090373;28;20029;-54
2023/11/26 06:05:40;;;;;;;14.13;5.63;;;;;;;;;;2090061;28;20045;-54
2023/11/26 06:06:42;;;;;;;9.35;3.85;;;;;;;;;;2090297;28;20029;-54
2023/11/26 06:07:43;;;;;;;7.15;3.55;;;;;;;;;;2090363;28;20037;-54
2023/11/26 06:08:43;;;;;;;9.82;4.78;;;;;;;;;;2090312;28;20101;-54